sensor_id;sensor_type;location;lat;lon;timestamp;pressure;altitude;pressure_sealevel;temperature;humidity
64230;BME280;50547;49.498;0.092;2023-04-04T00:00:57;1023.50;;;7.42;64.50
64230;BME280;50547;49.498;0.092;2023-04-04T00:03:27;1023.40;;;7.34;64.50
64230;BME280;50547;49.498;0.092;2023-04-04T00:05:56;1023.50;;;7.41;64.15
64230;BME280;50547;49.498;0.092;2023-04-04T00:08:25;1023.54;;;7.38;63.97
64230;BME280;50547;49.498;0.092;2023-04-04T00:10:56;1023.40;;;7.37;63.88
64230;BME280;50547;49.498;0.092;2023-04-04T00:13:26;1023.54;;;7.37;63.67
64230;BME280;50547;49.498;0.092;2023-04-04T00:15:55;1023.54;;;7.34;63.85
64230;BME280;50547;49.498;0.092;2023-04-04T00:18:24;1023.40;;;7.40;63.19
64230;BME280;50547;49.498;0.092;2023-04-04T00:20:53;1023.50;;;7.32;63.46
64230;BME280;50547;49.498;0.092;2023-04-04T00:23:23;1023.54;;;7.31;63.60
64230;BME280;50547;49.498;0.092;2023-04-04T00:25:52;1023.52;;;7.30;63.22
64230;BME280;50547;49.498;0.092;2023-04-04T00:28:18;1023.58;;;7.29;62.91
64230;BME280;50547;49.498;0.092;2023-04-04T00:30:47;1023.58;;;7.25;63.30
64230;BME280;50547;49.498;0.092;2023-04-04T00:33:16;1023.56;;;7.05;64.08
64230;BME280;50547;49.498;0.092;2023-04-04T00:35:47;1023.54;;;6.98;64.58
64230;BME280;50547;49.498;0.092;2023-04-04T00:38:16;1023.54;;;6.93;64.53
64230;BME280;50547;49.498;0.092;2023-04-04T00:40:47;1023.62;;;6.88;64.64
64230;BME280;50547;49.498;0.092;2023-04-04T00:43:17;1023.60;;;6.86;64.68
64230;BME280;50547;49.498;0.092;2023-04-04T00:45:43;1023.56;;;6.88;64.49
64230;BME280;50547;49.498;0.092;2023-04-04T00:48:13;1023.56;;;6.64;66.02
64230;BME280;50547;49.498;0.092;2023-04-04T00:50:43;1023.56;;;6.55;66.29
64230;BME280;50547;49.498;0.092;2023-04-04T00:53:12;1023.56;;;6.55;66.06
64230;BME280;50547;49.498;0.092;2023-04-04T00:55:41;1023.60;;;6.48;66.37
64230;BME280;50547;49.498;0.092;2023-04-04T00:58:11;1023.62;;;6.47;66.42
64230;BME280;50547;49.498;0.092;2023-04-04T01:00:40;1023.66;;;6.45;66.37
64230;BME280;50547;49.498;0.092;2023-04-04T01:03:09;1023.66;;;6.43;66.49
64230;BME280;50547;49.498;0.092;2023-04-04T01:05:39;1023.62;;;6.40;66.39
64230;BME280;50547;49.498;0.092;2023-04-04T01:08:08;1023.58;;;6.35;66.55
64230;BME280;50547;49.498;0.092;2023-04-04T01:10:38;1023.56;;;6.36;66.12
64230;BME280;50547;49.498;0.092;2023-04-04T01:13:07;1023.52;;;6.24;66.75
64230;BME280;50547;49.498;0.092;2023-04-04T01:15:37;1023.54;;;6.20;66.92
64230;BME280;50547;49.498;0.092;2023-04-04T01:18:08;1023.54;;;6.19;66.73
64230;BME280;50547;49.498;0.092;2023-04-04T01:20:43;1023.52;;;6.17;66.67
64230;BME280;50547;49.498;0.092;2023-04-04T01:23:23;1023.56;;;6.13;66.77
64230;BME280;50547;49.498;0.092;2023-04-04T01:26:01;1023.58;;;6.16;66.48
64230;BME280;50547;49.498;0.092;2023-04-04T01:28:30;1023.58;;;6.13;66.51
64230;BME280;50547;49.498;0.092;2023-04-04T01:31:00;1023.56;;;6.08;66.82
64230;BME280;50547;49.498;0.092;2023-04-04T01:33:35;1023.54;;;6.01;67.19
64230;BME280;50547;49.498;0.092;2023-04-04T01:36:12;1023.52;;;5.97;67.16
64230;BME280;50547;49.498;0.092;2023-04-04T01:38:52;1023.50;;;5.89;67.58
64230;BME280;50547;49.498;0.092;2023-04-04T01:41:27;1023.54;;;5.95;67.05
64230;BME280;50547;49.498;0.092;2023-04-04T01:43:58;1023.42;;;5.86;67.44
64230;BME280;50547;49.498;0.092;2023-04-04T01:46:28;1023.52;;;5.87;67.19
64230;BME280;50547;49.498;0.092;2023-04-04T01:48:57;1023.42;;;5.80;67.39
64230;BME280;50547;49.498;0.092;2023-04-04T01:51:26;1023.40;;;5.79;67.29
64230;BME280;50547;49.498;0.092;2023-04-04T01:53:56;1023.40;;;5.77;67.34
64230;BME280;50547;49.498;0.092;2023-04-04T01:56:25;1023.40;;;5.69;67.64
64230;BME280;50547;49.498;0.092;2023-04-04T01:58:54;1023.50;;;5.70;67.41
64230;BME280;50547;49.498;0.092;2023-04-04T02:01:23;1023.50;;;5.64;67.56
64230;BME280;50547;49.498;0.092;2023-04-04T02:03:52;1023.40;;;5.65;67.39
64230;BME280;50547;49.498;0.092;2023-04-04T02:06:18;1023.34;;;5.64;67.30
64230;BME280;50547;49.498;0.092;2023-04-04T02:08:47;1023.30;;;5.72;66.95
64230;BME280;50547;49.498;0.092;2023-04-04T02:11:16;1023.36;;;5.71;66.72
64230;BME280;50547;49.498;0.092;2023-04-04T02:13:46;1023.38;;;5.66;66.95
64230;BME280;50547;49.498;0.092;2023-04-04T02:16:15;1023.34;;;5.62;67.14
64230;BME280;50547;49.498;0.092;2023-04-04T02:18:44;1023.36;;;5.57;67.42
64230;BME280;50547;49.498;0.092;2023-04-04T02:21:14;1023.26;;;5.53;67.29
64230;BME280;50547;49.498;0.092;2023-04-04T02:23:43;1023.22;;;5.48;67.67
64230;BME280;50547;49.498;0.092;2023-04-04T02:26:12;1023.20;;;5.46;67.52
64230;BME280;50547;49.498;0.092;2023-04-04T02:28:41;1023.14;;;5.47;67.46
64230;BME280;50547;49.498;0.092;2023-04-04T02:31:11;1023.16;;;5.47;67.44
64230;BME280;50547;49.498;0.092;2023-04-04T02:33:40;1023.14;;;5.45;67.49
64230;BME280;50547;49.498;0.092;2023-04-04T02:36:09;1023.18;;;5.40;67.79
64230;BME280;50547;49.498;0.092;2023-04-04T02:38:38;1023.14;;;5.42;67.67
64230;BME280;50547;49.498;0.092;2023-04-04T02:41:07;1023.12;;;5.46;67.33
64230;BME280;50547;49.498;0.092;2023-04-04T02:43:37;1023.10;;;5.47;67.34
64230;BME280;50547;49.498;0.092;2023-04-04T02:46:06;1023.16;;;5.48;67.51
64230;BME280;50547;49.498;0.092;2023-04-04T02:48:35;1023.20;;;5.56;67.14
64230;BME280;50547;49.498;0.092;2023-04-04T02:51:04;1023.16;;;5.54;67.05
64230;BME280;50547;49.498;0.092;2023-04-04T02:53:33;1023.16;;;5.38;68.01
64230;BME280;50547;49.498;0.092;2023-04-04T02:56:03;1023.10;;;5.43;67.87
64230;BME280;50547;49.498;0.092;2023-04-04T02:58:32;1023.06;;;5.33;68.12
64230;BME280;50547;49.498;0.092;2023-04-04T03:01:02;1023.00;;;5.19;68.70
64230;BME280;50547;49.498;0.092;2023-04-04T03:03:31;1023.02;;;5.16;68.70
64230;BME280;50547;49.498;0.092;2023-04-04T03:06:00;1022.99;;;5.15;68.80
64230;BME280;50547;49.498;0.092;2023-04-04T03:08:29;1023.04;;;5.18;68.30
64230;BME280;50547;49.498;0.092;2023-04-04T03:10:58;1022.99;;;5.15;68.39
64230;BME280;50547;49.498;0.092;2023-04-04T03:13:27;1022.99;;;5.10;68.89
64230;BME280;50547;49.498;0.092;2023-04-04T03:15:58;1022.93;;;5.15;68.46
64230;BME280;50547;49.498;0.092;2023-04-04T03:18:28;1022.95;;;5.15;68.59
64230;BME280;50547;49.498;0.092;2023-04-04T03:20:57;1022.95;;;5.09;68.88
64230;BME280;50547;49.498;0.092;2023-04-04T03:23:26;1023.00;;;5.14;68.59
64230;BME280;50547;49.498;0.092;2023-04-04T03:25:55;1022.95;;;5.12;68.87
64230;BME280;50547;49.498;0.092;2023-04-04T03:28:24;1023.02;;;5.20;68.69
64230;BME280;50547;49.498;0.092;2023-04-04T03:30:54;1023.00;;;5.31;67.96
64230;BME280;50547;49.498;0.092;2023-04-04T03:33:23;1023.04;;;5.43;67.77
64230;BME280;50547;49.498;0.092;2023-04-04T03:35:52;1023.06;;;5.37;68.17
64230;BME280;50547;49.498;0.092;2023-04-04T03:38:21;1023.10;;;5.50;67.70
64230;BME280;50547;49.498;0.092;2023-04-04T03:41:00;1023.04;;;5.57;67.49
64230;BME280;50547;49.498;0.092;2023-04-04T03:43:29;1023.06;;;5.75;66.94
64230;BME280;50547;49.498;0.092;2023-04-04T03:46:00;1023.08;;;5.81;66.68
64230;BME280;50547;49.498;0.092;2023-04-04T03:48:30;1023.12;;;5.90;66.40
64230;BME280;50547;49.498;0.092;2023-04-04T03:51:02;1023.10;;;5.96;66.26
64230;BME280;50547;49.498;0.092;2023-04-04T03:53:31;1023.16;;;6.01;66.09
64230;BME280;50547;49.498;0.092;2023-04-04T03:56:01;1023.14;;;6.02;66.10
64230;BME280;50547;49.498;0.092;2023-04-04T03:58:30;1023.16;;;6.05;66.07
64230;BME280;50547;49.498;0.092;2023-04-04T04:00:59;1023.16;;;6.07;66.10
64230;BME280;50547;49.498;0.092;2023-04-04T04:03:28;1023.12;;;6.19;65.55
64230;BME280;50547;49.498;0.092;2023-04-04T04:05:58;1023.12;;;6.17;65.62
64230;BME280;50547;49.498;0.092;2023-04-04T04:08:27;1023.16;;;6.16;65.91
64230;BME280;50547;49.498;0.092;2023-04-04T04:11:02;1023.14;;;6.15;65.82
64230;BME280;50547;49.498;0.092;2023-04-04T04:13:28;1023.18;;;6.17;65.99
64230;BME280;50547;49.498;0.092;2023-04-04T04:15:58;1023.18;;;6.14;66.10
64230;BME280;50547;49.498;0.092;2023-04-04T04:18:27;1023.18;;;6.07;66.25
64230;BME280;50547;49.498;0.092;2023-04-04T04:20:56;1023.18;;;6.13;66.18
64230;BME280;50547;49.498;0.092;2023-04-04T04:23:25;1023.24;;;6.21;65.70
64230;BME280;50547;49.498;0.092;2023-04-04T04:25:54;1023.18;;;6.20;65.93
64230;BME280;50547;49.498;0.092;2023-04-04T04:28:24;1023.16;;;6.12;66.38
64230;BME280;50547;49.498;0.092;2023-04-04T04:30:53;1023.18;;;6.15;66.12
64230;BME280;50547;49.498;0.092;2023-04-04T04:33:27;1023.28;;;6.11;66.31
64230;BME280;50547;49.498;0.092;2023-04-04T04:35:58;1023.28;;;6.07;66.37
64230;BME280;50547;49.498;0.092;2023-04-04T04:38:28;1023.26;;;6.13;66.05
64230;BME280;50547;49.498;0.092;2023-04-04T04:40:57;1023.24;;;6.14;66.01
64230;BME280;50547;49.498;0.092;2023-04-04T04:43:26;1023.28;;;6.08;66.46
64230;BME280;50547;49.498;0.092;2023-04-04T04:45:55;1023.28;;;6.15;66.30
64230;BME280;50547;49.498;0.092;2023-04-04T04:48:24;1023.30;;;5.98;66.79
64230;BME280;50547;49.498;0.092;2023-04-04T04:50:53;1023.36;;;5.88;67.15
64230;BME280;50547;49.498;0.092;2023-04-04T04:53:19;1023.36;;;5.84;67.39
64230;BME280;50547;49.498;0.092;2023-04-04T04:55:53;1023.38;;;5.88;67.14
64230;BME280;50547;49.498;0.092;2023-04-04T04:58:22;1023.40;;;5.93;66.85
64230;BME280;50547;49.498;0.092;2023-04-04T05:00:54;1023.40;;;5.91;67.02
64230;BME280;50547;49.498;0.092;2023-04-04T05:03:23;1023.54;;;6.03;66.38
64230;BME280;50547;49.498;0.092;2023-04-04T05:05:52;1023.50;;;5.95;66.87
64230;BME280;50547;49.498;0.092;2023-04-04T05:08:21;1023.52;;;5.99;66.92
64230;BME280;50547;49.498;0.092;2023-04-04T05:15:32;1023.54;;;6.03;67.16
64230;BME280;50547;49.498;0.092;2023-04-04T05:18:02;1023.56;;;5.97;67.26
64230;BME280;50547;49.498;0.092;2023-04-04T05:20:31;1023.56;;;5.90;67.67
64230;BME280;50547;49.498;0.092;2023-04-04T05:23:00;1023.58;;;5.92;67.61
64230;BME280;50547;49.498;0.092;2023-04-04T05:25:29;1023.64;;;5.86;67.85
64230;BME280;50547;49.498;0.092;2023-04-04T05:27:58;1023.62;;;5.89;67.60
64230;BME280;50547;49.498;0.092;2023-04-04T05:30:27;1023.70;;;5.78;68.32
64230;BME280;50547;49.498;0.092;2023-04-04T05:32:57;1023.76;;;5.83;67.90
64230;BME280;50547;49.498;0.092;2023-04-04T05:35:26;1023.74;;;5.79;67.91
64230;BME280;50547;49.498;0.092;2023-04-04T05:37:55;1023.84;;;5.82;67.73
64230;BME280;50547;49.498;0.092;2023-04-04T05:40:24;1023.84;;;5.78;67.87
64230;BME280;50547;49.498;0.092;2023-04-04T05:42:54;1023.82;;;5.76;68.19
64230;BME280;50547;49.498;0.092;2023-04-04T05:45:23;1023.82;;;5.79;67.88
64230;BME280;50547;49.498;0.092;2023-04-04T05:47:52;1023.88;;;5.82;67.81
64230;BME280;50547;49.498;0.092;2023-04-04T05:50:22;1023.82;;;5.83;67.80
64230;BME280;50547;49.498;0.092;2023-04-04T05:52:52;1023.82;;;5.88;67.70
64230;BME280;50547;49.498;0.092;2023-04-04T05:55:22;1023.82;;;6.01;67.23
64230;BME280;50547;49.498;0.092;2023-04-04T05:57:51;1023.80;;;6.00;67.16
64230;BME280;50547;49.498;0.092;2023-04-04T06:00:20;1023.86;;;6.18;66.75
64230;BME280;50547;49.498;0.092;2023-04-04T06:02:49;1023.88;;;6.28;66.24
64230;BME280;50547;49.498;0.092;2023-04-04T06:05:18;1023.88;;;6.28;66.21
64230;BME280;50547;49.498;0.092;2023-04-04T06:07:47;1023.92;;;6.28;66.46
64230;BME280;50547;49.498;0.092;2023-04-04T06:10:16;1023.88;;;6.36;66.16
64230;BME280;50547;49.498;0.092;2023-04-04T06:12:45;1023.96;;;6.50;65.69
64230;BME280;50547;49.498;0.092;2023-04-04T06:15:15;1023.96;;;6.53;65.72
64230;BME280;50547;49.498;0.092;2023-04-04T06:17:45;1023.97;;;6.58;65.56
64230;BME280;50547;49.498;0.092;2023-04-04T06:20:14;1024.05;;;6.71;65.49
64230;BME280;50547;49.498;0.092;2023-04-04T06:22:43;1024.07;;;6.83;64.89
64230;BME280;50547;49.498;0.092;2023-04-04T06:25:13;1024.11;;;6.91;64.86
64230;BME280;50547;49.498;0.092;2023-04-04T06:27:42;1024.13;;;6.90;65.07
64230;BME280;50547;49.498;0.092;2023-04-04T06:30:12;1024.17;;;6.94;65.30
64230;BME280;50547;49.498;0.092;2023-04-04T06:32:37;1024.15;;;7.02;64.91
64230;BME280;50547;49.498;0.092;2023-04-04T06:35:07;1024.21;;;7.00;64.77
64230;BME280;50547;49.498;0.092;2023-04-04T06:37:33;1024.31;;;6.92;65.13
64230;BME280;50547;49.498;0.092;2023-04-04T06:40:03;1024.27;;;6.98;64.95
64230;BME280;50547;49.498;0.092;2023-04-04T06:42:29;1024.33;;;7.08;64.76
64230;BME280;50547;49.498;0.092;2023-04-04T06:44:59;1024.36;;;7.09;64.78
64230;BME280;50547;49.498;0.092;2023-04-04T06:47:28;1024.38;;;7.04;64.95
64230;BME280;50547;49.498;0.092;2023-04-04T06:49:54;1024.42;;;7.30;64.21
64230;BME280;50547;49.498;0.092;2023-04-04T06:52:24;1024.46;;;7.50;63.43
64230;BME280;50547;49.498;0.092;2023-04-04T06:55:01;1024.46;;;7.52;63.32
64230;BME280;50547;49.498;0.092;2023-04-04T06:57:30;1024.50;;;7.67;63.15
64230;BME280;50547;49.498;0.092;2023-04-04T06:59:56;1024.52;;;7.69;63.23
64230;BME280;50547;49.498;0.092;2023-04-04T07:02:22;1024.54;;;7.75;63.60
64230;BME280;50547;49.498;0.092;2023-04-04T07:04:51;1024.50;;;7.76;63.22
64230;BME280;50547;49.498;0.092;2023-04-04T07:07:20;1024.56;;;7.74;63.34
64230;BME280;50547;49.498;0.092;2023-04-04T07:09:46;1024.62;;;7.76;63.56
64230;BME280;50547;49.498;0.092;2023-04-04T07:12:15;1024.64;;;8.06;61.85
64230;BME280;50547;49.498;0.092;2023-04-04T07:14:44;1024.64;;;7.97;62.38
64230;BME280;50547;49.498;0.092;2023-04-04T07:17:14;1024.70;;;7.99;62.61
64230;BME280;50547;49.498;0.092;2023-04-04T07:19:43;1024.76;;;7.90;62.78
64230;BME280;50547;49.498;0.092;2023-04-04T07:22:12;1024.70;;;7.83;62.73
64230;BME280;50547;49.498;0.092;2023-04-04T07:24:42;1024.76;;;7.78;62.81
64230;BME280;50547;49.498;0.092;2023-04-04T07:27:11;1024.74;;;7.62;63.30
64230;BME280;50547;49.498;0.092;2023-04-04T07:29:40;1024.70;;;7.64;62.94
64230;BME280;50547;49.498;0.092;2023-04-04T07:32:06;1024.62;;;7.70;62.43
64230;BME280;50547;49.498;0.092;2023-04-04T07:34:35;1024.56;;;7.65;62.19
64230;BME280;50547;49.498;0.092;2023-04-04T07:37:04;1024.62;;;7.70;62.14
64230;BME280;50547;49.498;0.092;2023-04-04T07:39:30;1024.64;;;7.75;61.62
64230;BME280;50547;49.498;0.092;2023-04-04T07:41:59;1024.62;;;7.86;61.19
64230;BME280;50547;49.498;0.092;2023-04-04T07:44:28;1024.54;;;7.99;60.58
64230;BME280;50547;49.498;0.092;2023-04-04T07:46:54;1024.56;;;8.08;60.65
64230;BME280;50547;49.498;0.092;2023-04-04T07:49:23;1024.58;;;8.12;60.67
64230;BME280;50547;49.498;0.092;2023-04-04T07:51:52;1024.58;;;8.33;60.50
64230;BME280;50547;49.498;0.092;2023-04-04T07:54:18;1024.50;;;8.44;59.29
64230;BME280;50547;49.498;0.092;2023-04-04T07:56:47;1024.56;;;8.73;58.69
64230;BME280;50547;49.498;0.092;2023-04-04T07:59:16;1024.52;;;8.91;57.82
64230;BME280;50547;49.498;0.092;2023-04-04T08:01:42;1024.54;;;8.88;58.35
64230;BME280;50547;49.498;0.092;2023-04-04T08:04:11;1024.52;;;9.07;57.52
64230;BME280;50547;49.498;0.092;2023-04-04T08:06:40;1024.54;;;9.25;56.68
64230;BME280;50547;49.498;0.092;2023-04-04T08:09:06;1024.54;;;9.06;57.45
64230;BME280;50547;49.498;0.092;2023-04-04T08:11:35;1024.56;;;9.30;56.63
64230;BME280;50547;49.498;0.092;2023-04-04T08:14:04;1024.58;;;9.71;55.87
64230;BME280;50547;49.498;0.092;2023-04-04T08:16:33;1024.58;;;9.84;54.86
64230;BME280;50547;49.498;0.092;2023-04-04T08:19:03;1024.56;;;10.08;54.56
64230;BME280;50547;49.498;0.092;2023-04-04T08:21:32;1024.58;;;10.78;52.85
64230;BME280;50547;49.498;0.092;2023-04-04T08:24:02;1024.62;;;10.93;51.29
64230;BME280;50547;49.498;0.092;2023-04-04T08:26:31;1024.60;;;11.39;50.59
64230;BME280;50547;49.498;0.092;2023-04-04T08:29:00;1024.60;;;11.43;49.88
64230;BME280;50547;49.498;0.092;2023-04-04T08:31:29;1024.62;;;11.96;49.46
64230;BME280;50547;49.498;0.092;2023-04-04T08:33:58;1024.60;;;11.82;49.51
64230;BME280;50547;49.498;0.092;2023-04-04T08:36:28;1024.56;;;12.08;49.39
64230;BME280;50547;49.498;0.092;2023-04-04T08:38:57;1024.64;;;11.77;48.94
64230;BME280;50547;49.498;0.092;2023-04-04T08:41:26;1024.64;;;11.49;49.16
64230;BME280;50547;49.498;0.092;2023-04-04T08:44:01;1024.66;;;11.39;50.50
64230;BME280;50547;49.498;0.092;2023-04-04T08:46:32;1024.64;;;11.53;48.92
64230;BME280;50547;49.498;0.092;2023-04-04T08:49:02;1024.62;;;11.28;49.45
64230;BME280;50547;49.498;0.092;2023-04-04T08:51:32;1024.62;;;11.74;49.68
64230;BME280;50547;49.498;0.092;2023-04-04T08:54:02;1024.58;;;12.03;47.83
64230;BME280;50547;49.498;0.092;2023-04-04T08:56:32;1024.64;;;12.37;47.31
64230;BME280;50547;49.498;0.092;2023-04-04T08:59:02;1024.64;;;12.45;46.08
64230;BME280;50547;49.498;0.092;2023-04-04T09:01:31;1024.66;;;12.60;45.71
64230;BME280;50547;49.498;0.092;2023-04-04T09:04:01;1024.64;;;12.58;45.59
64230;BME280;50547;49.498;0.092;2023-04-04T09:06:30;1024.66;;;12.77;45.49
64230;BME280;50547;49.498;0.092;2023-04-04T09:09:00;1024.62;;;12.83;44.80
64230;BME280;50547;49.498;0.092;2023-04-04T09:11:31;1024.66;;;12.47;46.85
64230;BME280;50547;49.498;0.092;2023-04-04T09:14:01;1024.72;;;12.77;45.34
64230;BME280;50547;49.498;0.092;2023-04-04T09:16:30;1024.66;;;12.21;47.34
64230;BME280;50547;49.498;0.092;2023-04-04T09:18:59;1024.72;;;12.50;46.90
64230;BME280;50547;49.498;0.092;2023-04-04T09:21:25;1024.72;;;12.57;47.12
64230;BME280;50547;49.498;0.092;2023-04-04T09:23:58;1024.68;;;13.10;45.35
64230;BME280;50547;49.498;0.092;2023-04-04T09:26:27;1024.66;;;13.47;44.59
64230;BME280;50547;49.498;0.092;2023-04-04T09:28:56;1024.72;;;14.07;43.96
64230;BME280;50547;49.498;0.092;2023-04-04T09:31:25;1024.70;;;14.43;43.33
64230;BME280;50547;49.498;0.092;2023-04-04T09:33:57;1024.64;;;14.59;42.66
64230;BME280;50547;49.498;0.092;2023-04-04T09:36:27;1024.64;;;14.88;43.85
64230;BME280;50547;49.498;0.092;2023-04-04T09:38:56;1024.64;;;15.25;43.36
64230;BME280;50547;49.498;0.092;2023-04-04T09:41:26;1024.54;;;14.83;42.08
64230;BME280;50547;49.498;0.092;2023-04-04T09:43:56;1024.52;;;14.83;43.43
64230;BME280;50547;49.498;0.092;2023-04-04T09:46:26;1024.52;;;14.88;43.36
64230;BME280;50547;49.498;0.092;2023-04-04T09:48:55;1024.50;;;15.13;43.08
64230;BME280;50547;49.498;0.092;2023-04-04T09:51:32;1024.42;;;15.27;41.80
64230;BME280;50547;49.498;0.092;2023-04-04T09:54:02;1024.46;;;15.38;42.35
64230;BME280;50547;49.498;0.092;2023-04-04T09:56:32;1024.42;;;15.41;42.25
64230;BME280;50547;49.498;0.092;2023-04-04T09:59:01;1024.40;;;15.35;42.00
64230;BME280;50547;49.498;0.092;2023-04-04T10:01:31;1024.48;;;15.57;41.11
64230;BME280;50547;49.498;0.092;2023-04-04T10:04:03;1024.44;;;15.84;41.62
64230;BME280;50547;49.498;0.092;2023-04-04T10:06:35;1024.40;;;14.61;41.23
64230;BME280;50547;49.498;0.092;2023-04-04T10:09:06;1024.46;;;14.80;40.23
64230;BME280;50547;49.498;0.092;2023-04-04T10:11:34;1024.42;;;12.92;43.40
64230;BME280;50547;49.498;0.092;2023-04-04T10:14:03;1024.44;;;12.96;44.57
64230;BME280;50547;49.498;0.092;2023-04-04T10:16:33;1024.36;;;13.14;41.74
64230;BME280;50547;49.498;0.092;2023-04-04T10:19:03;1024.36;;;12.39;43.35
64230;BME280;50547;49.498;0.092;2023-04-04T10:21:33;1024.40;;;12.25;42.24
64230;BME280;50547;49.498;0.092;2023-04-04T10:24:03;1024.44;;;12.13;43.64
64230;BME280;50547;49.498;0.092;2023-04-04T10:26:34;1024.46;;;11.86;44.36
64230;BME280;50547;49.498;0.092;2023-04-04T10:29:03;1024.36;;;12.05;42.73
64230;BME280;50547;49.498;0.092;2023-04-04T10:31:33;1024.38;;;12.78;42.02
64230;BME280;50547;49.498;0.092;2023-04-04T10:34:11;1024.36;;;13.31;41.11
64230;BME280;50547;49.498;0.092;2023-04-04T10:36:44;1024.29;;;14.11;39.02
64230;BME280;50547;49.498;0.092;2023-04-04T10:39:19;1024.31;;;13.73;40.27
64230;BME280;50547;49.498;0.092;2023-04-04T10:41:50;1024.23;;;14.04;39.82
64230;BME280;50547;49.498;0.092;2023-04-04T10:44:27;1024.27;;;13.82;41.13
64230;BME280;50547;49.498;0.092;2023-04-04T10:47:01;1024.29;;;13.46;41.05
64230;BME280;50547;49.498;0.092;2023-04-04T10:49:33;1024.23;;;12.88;44.61
64230;BME280;50547;49.498;0.092;2023-04-04T10:52:02;1024.27;;;13.50;40.99
64230;BME280;50547;49.498;0.092;2023-04-04T10:54:32;1024.25;;;13.75;39.26
64230;BME280;50547;49.498;0.092;2023-04-04T10:57:01;1024.29;;;13.88;39.32
64230;BME280;50547;49.498;0.092;2023-04-04T10:59:31;1024.15;;;14.68;38.37
64230;BME280;50547;49.498;0.092;2023-04-04T11:02:01;1024.09;;;14.99;37.20
64230;BME280;50547;49.498;0.092;2023-04-04T11:04:32;1024.09;;;14.49;38.40
64230;BME280;50547;49.498;0.092;2023-04-04T11:07:12;1024.15;;;14.35;39.84
64230;BME280;50547;49.498;0.092;2023-04-04T11:09:48;1024.15;;;14.74;37.01
64230;BME280;50547;49.498;0.092;2023-04-04T11:12:42;1024.13;;;14.41;38.57
64230;BME280;50547;49.498;0.092;2023-04-04T11:15:13;1024.17;;;14.05;39.91
64230;BME280;50547;49.498;0.092;2023-04-04T11:17:49;1024.15;;;14.91;37.81
64230;BME280;50547;49.498;0.092;2023-04-04T11:20:20;1024.09;;;14.66;37.14
64230;BME280;50547;49.498;0.092;2023-04-04T11:22:50;1024.01;;;14.28;40.44
64230;BME280;50547;49.498;0.092;2023-04-04T11:25:32;1024.01;;;14.70;39.41
64230;BME280;50547;49.498;0.092;2023-04-04T11:28:05;1023.99;;;14.70;37.59
64230;BME280;50547;49.498;0.092;2023-04-04T11:30:37;1023.86;;;13.73;40.78
64230;BME280;50547;49.498;0.092;2023-04-04T11:33:07;1023.99;;;14.32;39.56
64230;BME280;50547;49.498;0.092;2023-04-04T11:35:37;1023.96;;;14.71;40.13
64230;BME280;50547;49.498;0.092;2023-04-04T11:38:15;1023.88;;;15.53;37.49
64230;BME280;50547;49.498;0.092;2023-04-04T11:40:52;1023.84;;;15.39;36.38
64230;BME280;50547;49.498;0.092;2023-04-04T11:43:22;1023.82;;;14.90;36.97
64230;BME280;50547;49.498;0.092;2023-04-04T11:45:51;1023.80;;;15.53;37.31
64230;BME280;50547;49.498;0.092;2023-04-04T11:48:21;1023.76;;;15.90;36.30
64230;BME280;50547;49.498;0.092;2023-04-04T11:50:52;1023.76;;;16.41;34.96
64230;BME280;50547;49.498;0.092;2023-04-04T11:53:21;1023.78;;;16.43;35.32
64230;BME280;50547;49.498;0.092;2023-04-04T11:55:50;1023.80;;;16.84;34.79
64230;BME280;50547;49.498;0.092;2023-04-04T11:58:20;1023.84;;;17.15;38.09
64230;BME280;50547;49.498;0.092;2023-04-04T12:00:49;1023.92;;;16.71;42.80
64230;BME280;50547;49.498;0.092;2023-04-04T12:03:19;1023.92;;;16.76;44.16
64230;BME280;50547;49.498;0.092;2023-04-04T12:05:48;1023.86;;;16.31;44.43
64230;BME280;50547;49.498;0.092;2023-04-04T12:08:17;1023.78;;;15.93;45.00
64230;BME280;50547;49.498;0.092;2023-04-04T12:10:47;1023.72;;;15.97;43.77
64230;BME280;50547;49.498;0.092;2023-04-04T12:13:16;1023.72;;;15.90;43.21
64230;BME280;50547;49.498;0.092;2023-04-04T12:15:47;1023.74;;;16.08;44.94
64230;BME280;50547;49.498;0.092;2023-04-04T12:18:20;1023.68;;;15.34;47.77
64230;BME280;50547;49.498;0.092;2023-04-04T12:20:50;1023.70;;;15.00;48.74
64230;BME280;50547;49.498;0.092;2023-04-04T12:23:21;1023.66;;;14.62;47.70
64230;BME280;50547;49.498;0.092;2023-04-04T12:25:50;1023.66;;;15.31;45.45
64230;BME280;50547;49.498;0.092;2023-04-04T12:28:19;1023.64;;;15.47;45.37
64230;BME280;50547;49.498;0.092;2023-04-04T12:30:49;1023.66;;;15.18;47.00
64230;BME280;50547;49.498;0.092;2023-04-04T12:33:18;1023.60;;;15.34;45.53
64230;BME280;50547;49.498;0.092;2023-04-04T12:35:51;1023.38;;;15.62;45.90
64230;BME280;50547;49.498;0.092;2023-04-04T12:38:20;1023.38;;;15.38;44.46
64230;BME280;50547;49.498;0.092;2023-04-04T12:40:50;1023.38;;;15.13;45.63
64230;BME280;50547;49.498;0.092;2023-04-04T12:43:19;1023.38;;;15.38;44.31
64230;BME280;50547;49.498;0.092;2023-04-04T12:45:49;1023.34;;;15.54;43.83
64230;BME280;50547;49.498;0.092;2023-04-04T12:48:16;1023.40;;;16.04;43.79
64230;BME280;50547;49.498;0.092;2023-04-04T12:50:50;1023.36;;;16.54;40.89
64230;BME280;50547;49.498;0.092;2023-04-04T12:53:21;1023.34;;;16.57;40.06
64230;BME280;50547;49.498;0.092;2023-04-04T12:55:51;1023.28;;;16.52;42.67
64230;BME280;50547;49.498;0.092;2023-04-04T12:58:22;1023.30;;;16.12;44.15
64230;BME280;50547;49.498;0.092;2023-04-04T13:00:54;1023.32;;;16.56;42.10
64230;BME280;50547;49.498;0.092;2023-04-04T13:03:24;1023.28;;;17.04;40.98
64230;BME280;50547;49.498;0.092;2023-04-04T13:05:53;1023.10;;;16.51;41.35
64230;BME280;50547;49.498;0.092;2023-04-04T13:08:22;1023.08;;;16.20;43.46
64230;BME280;50547;49.498;0.092;2023-04-04T13:10:56;1023.10;;;16.42;43.36
64230;BME280;50547;49.498;0.092;2023-04-04T13:13:30;1023.10;;;16.77;42.46
64230;BME280;50547;49.498;0.092;2023-04-04T13:16:01;1023.06;;;16.90;41.74
64230;BME280;50547;49.498;0.092;2023-04-04T13:18:33;1022.97;;;16.65;41.92
64230;BME280;50547;49.498;0.092;2023-04-04T13:21:04;1023.00;;;16.25;42.60
64230;BME280;50547;49.498;0.092;2023-04-04T13:23:34;1022.91;;;16.01;44.30
64230;BME280;50547;49.498;0.092;2023-04-04T13:26:03;1022.93;;;16.50;44.39
64230;BME280;50547;49.498;0.092;2023-04-04T13:28:33;1022.87;;;15.84;42.51
64230;BME280;50547;49.498;0.092;2023-04-04T13:31:03;1022.87;;;16.51;43.71
64230;BME280;50547;49.498;0.092;2023-04-04T13:33:32;1022.93;;;16.37;43.45
64230;BME280;50547;49.498;0.092;2023-04-04T13:36:02;1022.93;;;16.20;42.97